createdAt,value
2023-01-20T00:01:07.087Z,14.18
2023-01-20T00:03:34.086Z,13.45
2023-01-20T00:06:01.080Z,15.20
2023-01-20T00:08:28.018Z,13.10
2023-01-20T00:10:54.976Z,13.35
2023-01-20T00:13:22.121Z,14.65
2023-01-20T00:15:49.048Z,12.48
2023-01-20T00:18:16.494Z,12.60
2023-01-20T00:20:43.724Z,13.75
2023-01-20T00:23:10.700Z,12.23
2023-01-20T00:25:37.752Z,12.50
2023-01-20T00:28:05.235Z,14.18
2023-01-20T00:30:32.278Z,12.77
2023-01-20T00:32:59.585Z,12.23
2023-01-20T00:35:26.470Z,12.55
2023-01-20T00:37:53.390Z,12.50
2023-01-20T00:40:20.477Z,11.98
2023-01-20T00:42:47.388Z,12.32
2023-01-20T00:45:14.599Z,13.25
2023-01-20T00:47:41.823Z,13.52
2023-01-20T00:50:09.179Z,12.57
2023-01-20T00:52:36.068Z,13.52
2023-01-20T00:55:03.403Z,12.77
2023-01-20T00:57:30.257Z,13.50
2023-01-20T00:59:57.182Z,13.20
2023-01-20T01:02:24.102Z,13.18
2023-01-20T01:04:51.314Z,15.40
2023-01-20T01:07:18.852Z,13.63
2023-01-20T01:09:45.853Z,11.77
2023-01-20T01:12:12.819Z,12.52
2023-01-20T01:14:39.754Z,13.55
2023-01-20T01:17:06.714Z,13.35
2023-01-20T01:19:33.623Z,14.13
2023-01-20T01:22:00.531Z,13.27
2023-01-20T01:24:27.449Z,11.98
2023-01-20T01:26:54.597Z,12.82
2023-01-20T01:29:21.894Z,13.68
2023-01-20T01:31:48.863Z,12.23
2023-01-20T01:34:15.787Z,14.18
2023-01-20T01:36:42.865Z,13.10
2023-01-20T01:39:09.748Z,14.02
2023-01-20T01:41:36.761Z,13.55
2023-01-20T01:44:11.236Z,15.88
2023-01-20T01:46:39.000Z,13.50
2023-01-20T01:49:09.123Z,14.75
2023-01-20T01:51:41.813Z,15.32
2023-01-20T01:54:21.932Z,15.18
2023-01-20T01:56:50.291Z,15.57
2023-01-20T01:59:18.634Z,14.90
2023-01-20T02:01:50.537Z,16.65
2023-01-20T02:04:21.155Z,17.17
2023-01-20T02:07:11.410Z,15.63
2023-01-20T02:09:38.747Z,15.45
2023-01-20T02:12:12.359Z,15.60
2023-01-20T02:14:47.287Z,16.17
2023-01-20T02:17:35.617Z,14.15
2023-01-20T02:20:35.473Z,14.77
2023-01-20T02:23:15.424Z,15.00
2023-01-20T02:25:45.041Z,15.60
2023-01-20T02:28:40.731Z,14.45
2023-01-20T02:31:15.029Z,14.30
2023-01-20T02:33:58.493Z,14.05
2023-01-20T02:36:38.985Z,14.40
2023-01-20T02:39:30.506Z,14.65
2023-01-20T02:42:25.849Z,16.00
2023-01-20T02:44:59.640Z,13.77
2023-01-20T02:47:26.620Z,16.33
2023-01-20T02:49:59.370Z,15.25
2023-01-20T02:52:34.950Z,14.95
2023-01-20T02:55:07.408Z,14.93
2023-01-20T02:57:42.541Z,13.80
2023-01-20T03:00:24.950Z,16.40
2023-01-20T03:02:55.540Z,14.35
2023-01-20T03:05:27.605Z,14.48
2023-01-20T03:07:55.869Z,14.52
2023-01-20T03:10:26.738Z,15.02
2023-01-20T03:13:26.302Z,14.82
2023-01-20T03:16:00.644Z,15.32
2023-01-20T03:18:30.095Z,14.65
2023-01-20T03:20:59.588Z,13.95
2023-01-20T03:23:29.425Z,14.00
2023-01-20T03:25:57.981Z,14.68
2023-01-20T03:28:25.509Z,15.68
2023-01-20T03:30:56.904Z,14.98
2023-01-20T03:33:24.627Z,15.40
2023-01-20T03:35:52.517Z,15.65
2023-01-20T03:38:19.462Z,14.02
2023-01-20T03:40:53.984Z,14.50
2023-01-20T03:45:59.425Z,13.63
2023-01-20T03:48:38.551Z,13.60
2023-01-20T03:51:20.757Z,14.05
2023-01-20T03:53:54.342Z,14.82
2023-01-20T03:56:28.587Z,14.80
2023-01-20T03:58:59.792Z,16.23
2023-01-20T04:01:34.356Z,15.55
2023-01-20T04:06:30.088Z,15.45
2023-01-20T04:09:05.324Z,14.18
2023-01-20T04:11:34.081Z,15.75
2023-01-20T04:14:01.375Z,17.38
2023-01-20T04:16:28.417Z,16.20
2023-01-20T04:18:55.563Z,15.88
2023-01-20T04:21:49.122Z,14.70
2023-01-20T04:24:25.003Z,16.70
2023-01-20T04:26:51.975Z,14.93
2023-01-20T04:29:18.975Z,14.90
2023-01-20T04:31:45.920Z,15.23
2023-01-20T04:34:15.687Z,14.70
2023-01-20T04:36:43.167Z,15.45
2023-01-20T04:39:10.353Z,15.55
2023-01-20T04:41:37.347Z,14.43
2023-01-20T04:44:04.274Z,15.48
2023-01-20T04:46:31.179Z,14.73
2023-01-20T04:48:58.211Z,15.90
2023-01-20T04:51:25.279Z,15.32
2023-01-20T04:53:57.097Z,14.05
2023-01-20T04:56:24.330Z,14.93
2023-01-20T04:58:51.246Z,16.23
2023-01-20T05:01:18.503Z,16.50
2023-01-20T05:03:45.473Z,14.35
2023-01-20T05:06:12.641Z,14.15
2023-01-20T05:08:40.007Z,15.07
2023-01-20T05:11:07.264Z,14.55
2023-01-20T05:13:38.635Z,15.48
2023-01-20T05:16:09.872Z,16.13
2023-01-20T05:18:37.114Z,16.67
2023-01-20T05:21:06.248Z,16.98
2023-01-20T05:23:33.118Z,16.95
2023-01-20T05:26:00.103Z,15.52
2023-01-20T05:28:27.020Z,17.73
2023-01-20T05:30:54.031Z,16.50
2023-01-20T05:33:21.076Z,18.13
2023-01-20T05:35:47.954Z,15.65
2023-01-20T05:38:14.909Z,17.75
2023-01-20T05:40:41.811Z,15.35
2023-01-20T05:43:08.707Z,17.17
2023-01-20T05:45:35.594Z,17.30
2023-01-20T05:48:03.318Z,17.42
2023-01-20T05:50:30.520Z,16.58
2023-01-20T05:52:57.418Z,17.77
2023-01-20T05:55:24.424Z,17.73
2023-01-20T05:57:51.444Z,17.83
2023-01-20T06:00:19.037Z,16.25
2023-01-20T06:02:46.271Z,15.57
2023-01-20T06:05:13.652Z,16.83
2023-01-20T06:07:40.793Z,15.70
2023-01-20T06:10:08.899Z,16.80
2023-01-20T06:12:35.925Z,15.13
2023-01-20T06:15:03.729Z,15.90
2023-01-20T06:17:30.781Z,14.98
2023-01-20T06:19:57.996Z,15.50
2023-01-20T06:22:26.214Z,16.55
2023-01-20T06:24:53.692Z,14.20
2023-01-20T06:27:20.663Z,13.75
2023-01-20T06:29:47.933Z,14.48
2023-01-20T06:32:14.879Z,13.75
2023-01-20T06:34:41.803Z,14.98
2023-01-20T06:37:08.889Z,15.85
2023-01-20T06:39:35.848Z,15.80
2023-01-20T06:42:02.797Z,14.10
2023-01-20T06:44:29.743Z,14.93
2023-01-20T06:46:58.096Z,13.73
2023-01-20T06:49:25.019Z,15.13
2023-01-20T06:51:52.224Z,14.93
2023-01-20T06:54:19.174Z,14.13
2023-01-20T06:56:46.419Z,14.88
2023-01-20T06:59:13.727Z,15.45
2023-01-20T07:01:41.029Z,14.48
2023-01-20T07:04:08.493Z,14.13
2023-01-20T07:06:40.760Z,15.70
2023-01-20T07:09:10.986Z,14.13
2023-01-20T07:11:38.189Z,15.57
2023-01-20T07:14:06.623Z,15.52
2023-01-20T07:16:33.971Z,16.13
2023-01-20T07:19:00.974Z,16.40
2023-01-20T07:21:28.338Z,14.48
2023-01-20T07:23:55.375Z,16.05
2023-01-20T07:26:26.535Z,13.93
2023-01-20T07:28:53.677Z,15.30
2023-01-20T07:31:23.008Z,14.70
2023-01-20T07:49:12.318Z,17.52
2023-01-20T07:51:40.134Z,17.42
2023-01-20T07:54:07.186Z,15.70
2023-01-20T07:56:34.441Z,17.20
2023-01-20T07:59:01.720Z,17.85
2023-01-20T08:01:31.045Z,17.42
2023-01-20T08:04:00.809Z,18.65
2023-01-20T08:06:29.423Z,17.67
2023-01-20T08:08:59.373Z,16.35
2023-01-20T08:11:26.324Z,17.10
2023-01-20T08:13:53.269Z,17.95
2023-01-20T08:16:20.444Z,17.52
2023-01-20T08:18:48.030Z,17.00
2023-01-20T08:21:32.107Z,17.45
2023-01-20T08:24:00.794Z,17.80
2023-01-20T08:26:29.886Z,17.75
2023-01-20T08:29:02.226Z,20.23
2023-01-20T08:31:29.280Z,18.42
2023-01-20T08:33:57.749Z,20.55
2023-01-20T08:36:31.176Z,17.30
2023-01-20T08:39:00.452Z,16.88
2023-01-20T08:41:31.937Z,17.73
2023-01-20T08:44:00.674Z,16.20
2023-01-20T08:46:27.775Z,15.07
2023-01-20T08:48:56.219Z,14.48
2023-01-20T08:51:29.331Z,17.33
2023-01-20T08:53:56.497Z,15.65
2023-01-20T08:56:23.658Z,15.48
2023-01-20T08:58:51.165Z,16.35
2023-01-20T09:01:22.132Z,14.02
2023-01-20T09:04:04.434Z,16.83
2023-01-20T09:06:47.236Z,14.93
2023-01-20T09:09:15.968Z,15.75
2023-01-20T09:11:50.705Z,15.75
2023-01-20T09:14:22.917Z,15.80
2023-01-20T09:16:49.981Z,16.98
2023-01-20T09:19:17.716Z,15.70
2023-01-20T09:21:44.829Z,16.23
2023-01-20T09:24:11.861Z,18.90
2023-01-20T09:26:41.759Z,18.05
2023-01-20T09:29:12.553Z,16.27
2023-01-20T09:31:44.998Z,17.83
2023-01-20T09:34:19.670Z,16.90
2023-01-20T09:36:54.031Z,17.65
2023-01-20T09:39:39.519Z,17.15
2023-01-20T09:42:37.459Z,20.15
2023-01-20T09:45:26.728Z,20.92
2023-01-20T09:48:41.650Z,19.45
2023-01-20T09:51:34.902Z,18.13
2023-01-20T09:54:09.889Z,16.58
2023-01-20T09:56:43.809Z,17.40
2023-01-20T09:59:16.442Z,16.88
2023-01-20T10:01:50.134Z,15.35
2023-01-20T10:04:31.108Z,15.98
2023-01-20T10:07:03.067Z,17.05
2023-01-20T10:09:35.737Z,17.15
2023-01-20T10:12:29.130Z,19.00
2023-01-20T10:15:00.979Z,19.67
2023-01-20T10:17:49.380Z,19.35
2023-01-20T10:20:31.586Z,18.83
2023-01-20T10:23:13.889Z,17.45
2023-01-20T10:25:59.681Z,18.10
2023-01-20T10:28:35.105Z,16.45
2023-01-20T10:31:04.500Z,17.45
2023-01-20T10:33:45.431Z,17.92
2023-01-20T10:36:21.692Z,17.80
2023-01-20T10:39:05.635Z,17.65
2023-01-20T10:41:41.584Z,17.60
2023-01-20T10:44:16.173Z,16.08
2023-01-20T10:46:43.133Z,17.33
2023-01-20T10:49:28.526Z,17.48
2023-01-20T10:52:01.755Z,18.13
2023-01-20T10:54:59.624Z,18.75
2023-01-20T10:57:26.950Z,18.30
2023-01-20T11:00:01.990Z,19.45
2023-01-20T11:02:34.944Z,19.65
2023-01-20T11:05:15.635Z,19.67
2023-01-20T11:07:44.591Z,19.80
2023-01-20T11:10:20.229Z,19.67
2023-01-20T11:12:51.593Z,19.20
2023-01-20T11:15:24.062Z,19.95
2023-01-20T11:18:15.916Z,16.73
2023-01-20T11:20:49.319Z,16.73
2023-01-20T11:23:27.285Z,17.02
2023-01-20T11:26:03.130Z,17.88
2023-01-20T11:28:37.776Z,18.05
2023-01-20T11:31:05.448Z,16.08
2023-01-20T11:33:32.517Z,18.15
2023-01-20T11:36:05.578Z,17.13
2023-01-20T11:38:42.952Z,16.63
2023-01-20T11:41:28.097Z,16.90
2023-01-20T11:43:57.274Z,18.55
2023-01-20T11:46:33.306Z,19.67
2023-01-20T11:49:22.438Z,18.70
2023-01-20T11:51:52.416Z,17.25
2023-01-20T11:54:27.995Z,20.17
2023-01-20T11:57:00.589Z,18.45
2023-01-20T11:59:30.056Z,17.05
2023-01-20T12:02:00.413Z,19.30
2023-01-20T12:04:36.515Z,19.70
2023-01-20T12:07:24.327Z,18.77
2023-01-20T12:09:55.873Z,22.15
2023-01-20T12:12:33.907Z,19.40
2023-01-20T12:15:23.640Z,18.90
2023-01-20T12:17:54.123Z,19.13
2023-01-20T12:20:45.695Z,19.05
2023-01-20T12:23:23.409Z,19.48
2023-01-20T12:26:03.677Z,18.08
2023-01-20T12:28:52.535Z,18.90
2023-01-20T12:31:24.120Z,18.95
2023-01-20T12:33:56.165Z,19.75
2023-01-20T12:37:12.770Z,18.63
2023-01-20T12:40:08.793Z,17.55
2023-01-20T12:43:09.199Z,18.52
2023-01-20T12:46:13.063Z,18.45
2023-01-20T12:49:10.966Z,18.23
2023-01-20T12:51:49.942Z,18.88
2023-01-20T12:54:47.862Z,18.73
2023-01-20T12:57:24.865Z,19.75
2023-01-20T13:00:19.594Z,20.63
2023-01-20T13:03:33.698Z,19.15
2023-01-20T13:06:21.781Z,18.83
2023-01-20T13:09:13.004Z,19.48
2023-01-20T13:12:29.167Z,19.35
2023-01-20T13:15:30.332Z,21.77
2023-01-20T13:18:06.383Z,19.67
2023-01-20T13:20:35.205Z,22.17
2023-01-20T13:23:05.494Z,20.85
2023-01-20T13:25:34.687Z,20.13
2023-01-20T13:28:03.759Z,20.33
2023-01-20T13:30:54.162Z,20.67
2023-01-20T13:33:40.736Z,19.73
2023-01-20T13:36:18.527Z,20.80
2023-01-20T13:38:47.327Z,19.27
2023-01-20T13:41:47.751Z,17.70
2023-01-20T13:44:35.432Z,20.05
2023-01-20T13:47:04.197Z,21.20
2023-01-20T13:49:52.384Z,19.98
2023-01-20T13:52:50.635Z,18.23
2023-01-20T13:55:47.171Z,19.23
2023-01-20T13:58:31.782Z,18.33
2023-01-20T14:01:07.945Z,19.38
2023-01-20T14:03:37.727Z,18.27
2023-01-20T14:06:19.857Z,19.90
2023-01-20T14:08:49.180Z,18.58
2023-01-20T14:11:18.790Z,18.38
2023-01-20T14:14:18.120Z,20.63
2023-01-20T14:16:45.139Z,20.23
2023-01-20T14:19:32.970Z,21.13
2023-01-20T14:22:16.913Z,19.88
2023-01-20T14:24:46.548Z,20.23
2023-01-20T14:27:19.701Z,19.50
2023-01-20T14:29:48.892Z,22.20
2023-01-20T14:32:22.605Z,20.92
2023-01-20T14:34:50.242Z,20.63
2023-01-20T14:37:27.971Z,20.63
2023-01-20T14:39:58.654Z,20.73
2023-01-20T14:42:27.439Z,20.60
2023-01-20T14:44:56.582Z,22.40
2023-01-20T14:47:26.064Z,25.10
2023-01-20T14:49:54.397Z,26.40
2023-01-20T14:52:30.377Z,23.17
2023-01-20T14:54:57.631Z,23.58
2023-01-20T14:57:40.459Z,23.27
2023-01-20T15:00:22.389Z,23.63
2023-01-20T15:03:09.166Z,21.23
2023-01-20T15:05:39.438Z,21.77
2023-01-20T15:08:26.409Z,19.02
2023-01-20T15:11:12.855Z,21.15
2023-01-20T15:14:01.010Z,22.60
2023-01-20T15:16:29.170Z,23.10
2023-01-20T15:19:17.045Z,19.90
2023-01-20T15:21:46.185Z,21.35
2023-01-20T15:24:34.652Z,20.80
2023-01-20T15:27:02.730Z,22.00
2023-01-20T15:29:35.332Z,19.30
2023-01-20T15:32:10.682Z,20.10
2023-01-20T15:34:37.593Z,18.70
2023-01-20T15:37:14.434Z,19.85
2023-01-20T15:39:41.376Z,18.38
2023-01-20T15:42:11.671Z,17.90
2023-01-20T15:44:38.658Z,19.55
2023-01-20T15:47:22.130Z,20.27
2023-01-20T15:49:49.091Z,20.25
2023-01-20T15:52:16.102Z,18.73
2023-01-20T15:54:43.130Z,20.55
2023-01-20T15:57:19.181Z,23.88
2023-01-20T15:59:46.231Z,21.00
2023-01-20T16:02:19.587Z,21.63
2023-01-20T16:04:46.729Z,21.00
2023-01-20T16:07:17.172Z,19.40
2023-01-20T16:09:44.800Z,20.52
2023-01-20T16:12:13.691Z,22.83
2023-01-20T16:14:41.225Z,20.63
2023-01-20T16:17:23.233Z,34.42
2023-01-20T16:19:50.424Z,45.38
2023-01-20T16:22:17.452Z,29.05
2023-01-20T16:24:44.484Z,27.20
2023-01-20T16:27:20.822Z,22.48
2023-01-20T16:29:47.979Z,25.35
2023-01-20T16:32:17.696Z,32.60
2023-01-20T16:34:46.425Z,20.55
2023-01-20T16:37:14.492Z,21.98
2023-01-20T16:39:41.536Z,23.15
2023-01-20T16:42:12.525Z,21.08
2023-01-20T16:44:39.530Z,20.20
2023-01-20T16:47:08.383Z,19.38
2023-01-20T16:49:35.578Z,21.55
2023-01-20T16:52:02.566Z,20.75
2023-01-20T16:54:29.649Z,20.90
2023-01-20T16:56:56.636Z,20.40
2023-01-20T16:59:23.583Z,20.25
2023-01-20T17:01:50.543Z,22.35
2023-01-20T17:04:17.519Z,20.75
2023-01-20T17:06:44.586Z,21.08
2023-01-20T17:09:12.002Z,18.67
2023-01-20T17:11:40.512Z,19.52
2023-01-20T17:14:10.233Z,20.08
2023-01-20T17:16:38.371Z,19.65
2023-01-20T17:19:06.525Z,22.45
2023-01-20T17:21:37.187Z,18.58
2023-01-20T17:24:05.367Z,20.05
2023-01-20T17:26:32.478Z,18.70
2023-01-20T17:29:04.863Z,19.48
2023-01-20T17:31:35.558Z,18.95
2023-01-20T17:34:04.752Z,20.10
2023-01-20T17:36:34.808Z,20.80
2023-01-20T17:39:03.396Z,18.10
2023-01-20T17:41:30.320Z,19.48
2023-01-20T17:43:57.426Z,19.30
2023-01-20T17:46:30.332Z,19.27
2023-01-20T17:49:08.172Z,20.80
2023-01-20T17:51:35.301Z,22.55
2023-01-20T17:54:03.935Z,22.60
2023-01-20T17:56:31.226Z,23.40
2023-01-20T17:58:58.190Z,22.67
2023-01-20T18:01:27.894Z,23.10
2023-01-20T18:03:56.757Z,22.60
2023-01-20T18:06:25.416Z,21.15
2023-01-20T18:09:00.805Z,20.83
2023-01-20T18:11:31.178Z,21.95
2023-01-20T18:13:59.158Z,22.08
2023-01-20T18:16:32.586Z,19.75
2023-01-20T18:18:59.835Z,21.40
2023-01-20T18:21:33.243Z,19.00
2023-01-20T18:24:01.213Z,19.92
2023-01-20T18:26:31.529Z,19.50
2023-01-20T18:29:01.074Z,22.63
2023-01-20T18:31:30.094Z,22.73
2023-01-20T18:33:59.630Z,24.70
2023-01-20T18:36:37.884Z,24.63
2023-01-20T18:39:07.822Z,23.60
2023-01-20T18:41:37.624Z,23.02
2023-01-20T18:44:05.351Z,21.55
2023-01-20T18:46:32.867Z,23.35
2023-01-20T18:49:00.449Z,22.33
2023-01-20T18:51:29.099Z,22.88
2023-01-20T18:54:01.718Z,22.20
2023-01-20T18:56:29.954Z,22.13
2023-01-20T18:58:57.289Z,20.27
2023-01-20T19:01:27.897Z,20.13
2023-01-20T19:03:55.465Z,21.05
2023-01-20T19:06:34.922Z,20.40
2023-01-20T19:09:02.075Z,16.90
2023-01-20T19:11:31.951Z,18.70
2023-01-20T19:13:59.490Z,19.67
2023-01-20T19:16:32.571Z,18.08
2023-01-20T19:19:04.399Z,19.80
2023-01-20T19:21:33.291Z,18.17
2023-01-20T19:24:06.046Z,17.67
2023-01-20T19:26:35.889Z,17.05
2023-01-20T19:29:10.251Z,21.88
2023-01-20T19:31:39.540Z,23.90
2023-01-20T19:34:08.862Z,21.05
2023-01-20T19:36:36.366Z,22.85
2023-01-20T19:39:03.494Z,19.85
2023-01-20T19:41:36.122Z,19.75
2023-01-20T19:44:05.267Z,19.20
2023-01-20T19:46:34.347Z,19.27
2023-01-20T19:49:02.623Z,18.38
2023-01-20T19:51:32.201Z,18.38
2023-01-20T19:54:01.415Z,19.63
2023-01-20T19:56:31.771Z,20.80
2023-01-20T19:59:00.831Z,18.00
2023-01-20T20:01:32.774Z,18.45
2023-01-20T20:04:04.455Z,17.95
2023-01-20T20:06:33.745Z,18.92
2023-01-20T20:09:01.846Z,19.90
2023-01-20T20:11:29.838Z,17.80
2023-01-20T20:13:58.458Z,17.30
2023-01-20T20:16:27.752Z,17.63
2023-01-20T20:18:56.008Z,17.58
2023-01-20T20:21:24.049Z,16.75
2023-01-20T20:23:56.698Z,18.85
2023-01-20T20:26:26.893Z,16.98
2023-01-20T20:28:55.308Z,16.92
2023-01-20T20:31:29.112Z,16.10
2023-01-20T20:33:57.888Z,16.77
2023-01-20T20:36:28.484Z,17.77
2023-01-20T20:38:56.057Z,16.25
2023-01-20T20:41:25.865Z,17.05
2023-01-20T20:43:53.831Z,16.73
2023-01-20T20:46:21.328Z,16.27
2023-01-20T20:48:48.304Z,16.20
2023-01-20T20:51:17.258Z,15.50
2023-01-20T20:53:44.884Z,16.48
2023-01-20T20:56:14.589Z,15.82
2023-01-20T20:58:59.570Z,17.33
2023-01-20T21:01:29.905Z,15.32
2023-01-20T21:07:44.470Z,16.17
2023-01-20T21:10:14.049Z,16.45
2023-01-20T21:12:41.633Z,16.15
2023-01-20T21:15:11.344Z,16.55
2023-01-20T21:17:39.242Z,17.33
2023-01-20T21:20:07.642Z,18.10
2023-01-20T21:22:34.920Z,16.77
2023-01-20T21:25:01.877Z,19.50
2023-01-20T21:27:30.542Z,19.17
2023-01-20T21:29:57.481Z,18.60
2023-01-20T21:32:24.609Z,18.98
2023-01-20T21:34:51.529Z,20.23
2023-01-20T21:37:19.737Z,20.45
2023-01-20T21:39:46.680Z,18.08
2023-01-20T21:42:13.551Z,19.60
2023-01-20T21:44:43.262Z,19.95
2023-01-20T21:47:10.844Z,20.00
2023-01-20T21:49:56.449Z,18.80
2023-01-20T21:52:42.486Z,18.77
2023-01-20T21:55:16.155Z,18.75
2023-01-20T21:57:43.350Z,20.05
2023-01-20T22:00:10.990Z,18.92
2023-01-20T22:02:37.934Z,20.98
2023-01-20T22:05:05.227Z,19.13
2023-01-20T22:07:32.230Z,19.08
2023-01-20T22:09:59.200Z,19.58
2023-01-20T22:12:26.265Z,21.20
2023-01-20T22:14:53.231Z,19.10
2023-01-20T22:17:20.466Z,21.05
2023-01-20T22:19:47.435Z,18.80
2023-01-20T22:22:15.370Z,18.88
2023-01-20T22:24:42.716Z,21.08
2023-01-20T22:27:09.710Z,18.95
2023-01-20T22:29:36.681Z,18.35
2023-01-20T22:32:05.211Z,18.75
2023-01-20T22:34:32.151Z,16.88
2023-01-20T22:37:00.597Z,18.10
2023-01-20T22:39:28.240Z,18.30
2023-01-20T22:41:55.496Z,18.58
2023-01-20T22:44:22.576Z,16.98
2023-01-20T22:46:49.546Z,19.30
2023-01-20T22:49:16.497Z,16.90
2023-01-20T22:51:43.525Z,18.13
2023-01-20T22:54:10.976Z,16.38
2023-01-20T22:56:39.183Z,16.90
2023-01-20T22:59:06.462Z,17.33
2023-01-20T23:01:35.807Z,16.52
2023-01-20T23:04:04.879Z,15.80
2023-01-20T23:06:34.576Z,16.73
2023-01-20T23:09:04.588Z,15.32
2023-01-20T23:11:31.811Z,16.10
2023-01-20T23:14:00.319Z,14.45
2023-01-20T23:16:27.390Z,16.25
2023-01-20T23:18:54.501Z,16.52
2023-01-20T23:21:21.965Z,15.40
2023-01-20T23:23:54.472Z,15.98
2023-01-20T23:26:24.226Z,16.25
2023-01-20T23:28:52.860Z,16.30
2023-01-20T23:31:23.054Z,16.73
2023-01-20T23:33:50.651Z,15.80
2023-01-20T23:36:21.285Z,17.13
2023-01-20T23:38:48.283Z,16.50
2023-01-20T23:41:15.953Z,15.20
2023-01-20T23:43:43.371Z,17.45
2023-01-20T23:46:10.988Z,17.23
2023-01-20T23:48:38.850Z,18.40
2023-01-20T23:51:06.753Z,18.13
2023-01-20T23:53:39.050Z,16.02
2023-01-20T23:56:15.090Z,15.63
2023-01-20T23:58:42.439Z,15.82
